Time;durP1;ratioP1;P1;durP2;ratioP2;P2;SDS_P1;SDS_P2;PMS_P1;PMS_P2;Temp;Humidity;BMP_temperature;BMP_pressure;BME280_temperature;BME280_humidity;BME280_pressure;Samples;Min_cycle;Max_cycle;Signal;HPM_P1;HPM_P2
2023/05/02 00:03:53;;;;;;;55.37;24.70;;;;;9.20;101583.00;;;;9864167;29;20241;-75
2023/05/02 00:08:55;;;;;;;57.27;26.63;;;;;9.30;101580.00;;;;9863857;29;20249;-76
2023/05/02 00:13:57;;;;;;;60.43;27.40;;;;;9.50;101591.00;;;;9865444;29;21893;-75
2023/05/02 00:18:58;;;;;;;60.20;27.30;;;;;9.70;101590.00;;;;9849093;29;20786;-76
2023/05/02 00:24:00;;;;;;;63.37;29.43;;;;;9.90;101591.00;;;;9861488;29;20288;-75
2023/05/02 00:29:01;;;;;;;63.60;29.40;;;;;9.90;101595.00;;;;9840839;29;20235;-76
2023/05/02 00:34:03;;;;;;;57.43;28.17;;;;;10.00;101614.00;;;;9835342;29;20227;-76
2023/05/02 00:39:05;;;;;;;61.13;30.70;;;;;10.10;101602.00;;;;9802729;29;20884;-76
2023/05/02 00:44:07;;;;;;;70.67;30.70;;;;;10.20;101608.00;;;;9819697;29;20235;-76
2023/05/02 00:49:08;;;;;;;66.13;29.67;;;;;10.20;101621.00;;;;9836698;29;20397;-76
2023/05/02 00:54:14;;;;;;;62.33;31.13;;;;;10.20;101609.00;;;;9834030;29;20250;-75
2023/05/02 00:59:16;;;;;;;66.63;29.83;;;;;10.20;101615.00;;;;9835397;29;20239;-75
2023/05/02 01:04:27;;;;;;;62.60;30.63;;;;;10.20;101622.00;;;;9833744;29;20226;-75
2023/05/02 01:09:48;;;;;;;66.70;32.33;;;;;10.20;101620.00;;;;9840422;29;21865;-76
2023/05/02 01:14:55;;;;;;;63.47;31.17;;;;;10.10;101614.00;;;;9844681;29;20311;-76
2023/05/02 01:20:07;;;;;;;66.30;32.47;;;;;10.10;101616.00;;;;9827684;29;20223;-76
2023/05/02 01:25:23;;;;;;;60.70;30.90;;;;;10.10;101618.00;;;;9840547;29;21822;-76
2023/05/02 01:30:27;;;;;;;69.83;34.30;;;;;10.10;101620.00;;;;9841311;29;20227;-82
2023/05/02 01:35:31;;;;;;;75.67;34.43;;;;;10.10;101625.00;;;;9846283;29;20689;-82
2023/05/02 01:40:33;;;;;;;74.10;33.97;;;;;10.10;101622.00;;;;9867957;29;20229;-80
2023/05/02 01:45:36;;;;;;;70.17;32.87;;;;;10.00;101629.00;;;;9877428;29;20223;-82
2023/05/02 01:50:41;;;;;;;74.20;33.33;;;;;10.00;101625.00;;;;9833969;29;20266;-74
2023/05/02 01:55:44;;;;;;;69.00;32.43;;;;;10.00;101623.00;;;;9842157;29;20268;-76
2023/05/02 02:00:48;;;;;;;70.70;32.50;;;;;9.90;101625.00;;;;9838688;29;22060;-76
2023/05/02 02:05:51;;;;;;;72.87;34.43;;;;;9.80;101623.00;;;;9827100;29;20234;-76
2023/05/02 02:10:58;;;;;;;70.73;33.63;;;;;9.70;101625.00;;;;9840875;29;20307;-76
2023/05/02 02:16:03;;;;;;;74.33;34.40;;;;;9.60;101635.00;;;;9825980;29;20258;-75
2023/05/02 02:21:08;;;;;;;79.07;34.63;;;;;9.80;101640.00;;;;9842320;29;20238;-76
2023/05/02 02:26:11;;;;;;;89.40;37.50;;;;;9.80;101651.00;;;;9828168;29;20923;-76
2023/05/02 02:31:13;;;;;;;72.47;35.57;;;;;9.80;101646.00;;;;9825423;29;20245;-76
2023/05/02 02:36:26;;;;;;;84.73;37.10;;;;;9.70;101650.00;;;;9829090;29;20250;-79
2023/05/02 02:41:32;;;;;;;81.47;36.03;;;;;9.70;101643.00;;;;9847050;29;20226;-80
2023/05/02 02:46:47;;;;;;;71.93;33.27;;;;;9.70;101640.00;;;;9853038;29;20623;-75
2023/05/02 02:52:04;;;;;;;80.27;35.43;;;;;9.60;101645.00;;;;9837702;29;20621;-76
2023/05/02 02:57:32;;;;;;;77.07;35.03;;;;;9.50;101660.00;;;;9825309;29;20605;-76
2023/05/02 03:02:35;;;;;;;86.27;36.80;;;;;9.60;101667.00;;;;9815046;29;20226;-75
2023/05/02 03:07:37;;;;;;;87.20;38.53;;;;;9.60;101663.00;;;;9832086;29;20227;-76
2023/05/02 03:12:38;;;;;;;83.90;37.57;;;;;9.70;101667.00;;;;9846511;29;20287;-76
2023/05/02 03:17:40;;;;;;;76.23;36.03;;;;;9.80;101665.00;;;;9845637;29;21992;-76
2023/05/02 03:22:42;;;;;;;75.23;35.07;;;;;9.70;101666.00;;;;9838867;29;20464;-81
2023/05/02 03:27:43;;;;;;;84.10;35.70;;;;;9.80;101671.00;;;;9817379;29;20945;-81
2023/05/02 03:32:46;;;;;;;76.53;35.37;;;;;9.90;101669.00;;;;9861956;29;20258;-79
2023/05/02 03:37:47;;;;;;;76.87;35.30;;;;;9.90;101670.00;;;;9859842;29;20749;-79
2023/05/02 03:42:49;;;;;;;73.37;35.03;;;;;9.90;101676.00;;;;9847903;29;20219;-81
2023/05/02 03:48:00;;;;;;;70.77;33.10;;;;;10.00;101672.00;;;;9831408;29;20239;-79
2023/05/02 03:53:03;;;;;;;72.30;31.93;;;;;10.00;101684.00;;;;9831642;29;20215;-79
2023/05/02 03:58:14;;;;;;;73.43;32.23;;;;;10.00;101686.00;;;;9860080;29;20243;-80
2023/05/02 04:03:16;;;;;;;63.70;29.93;;;;;9.90;101694.00;;;;9846909;29;20261;-80
2023/05/02 04:08:19;;;;;;;65.43;29.53;;;;;9.90;101705.00;;;;9844783;29;20227;-81
2023/05/02 04:13:21;;;;;;;64.47;31.10;;;;;9.90;101693.00;;;;9827499;29;20230;-81
2023/05/02 04:18:23;;;;;;;66.50;30.73;;;;;9.90;101697.00;;;;9847093;29;20252;-75
2023/05/02 04:23:26;;;;;;;69.03;28.13;;;;;9.80;101693.00;;;;9816081;29;20229;-75
2023/05/02 04:28:34;;;;;;;64.30;29.63;;;;;9.80;101700.00;;;;9844293;29;20238;-75
2023/05/02 04:33:36;;;;;;;62.50;28.03;;;;;9.80;101710.00;;;;9828534;29;20501;-75
2023/05/02 04:38:38;;;;;;;62.03;28.73;;;;;9.80;101718.00;;;;9842495;29;20330;-75
2023/05/02 04:43:39;;;;;;;67.23;29.37;;;;;9.80;101735.00;;;;9830497;29;20222;-75
2023/05/02 04:48:42;;;;;;;70.93;31.23;;;;;9.90;101746.00;;;;9829708;29;20238;-76
2023/05/02 04:53:43;;;;;;;68.73;31.77;;;;;10.00;101750.00;;;;9844516;29;20250;-76
2023/05/02 04:58:45;;;;;;;72.83;31.00;;;;;10.10;101749.00;;;;9843783;29;20246;-76
2023/05/02 05:03:47;;;;;;;72.10;33.17;;;;;10.20;101760.00;;;;9827707;29;20243;-76
2023/05/02 05:08:51;;;;;;;72.77;32.57;;;;;10.10;101771.00;;;;9841131;29;20551;-74
2023/05/02 05:13:52;;;;;;;67.83;34.47;;;;;10.10;101772.00;;;;9827935;29;20346;-76
2023/05/02 05:18:54;;;;;;;77.57;31.67;;;;;10.10;101779.00;;;;9826634;29;20816;-75
2023/05/02 05:23:56;;;;;;;75.03;34.07;;;;;10.00;101784.00;;;;9826206;29;20693;-76
2023/05/02 05:29:01;;;;;;;76.80;34.03;;;;;10.00;101783.00;;;;9824353;29;20548;-75
2023/05/02 05:34:08;;;;;;;70.93;33.90;;;;;10.00;101794.00;;;;9812284;29;21960;-76
2023/05/02 05:39:10;;;;;;;79.43;36.50;;;;;10.00;101809.00;;;;9823490;29;20239;-75
2023/05/02 05:44:14;;;;;;;78.87;34.60;;;;;10.10;101813.00;;;;9812443;29;20313;-75
2023/05/02 05:49:16;;;;;;;77.73;35.40;;;;;10.10;101812.00;;;;9843443;29;20857;-76
2023/05/02 05:54:18;;;;;;;77.03;35.07;;;;;10.40;101820.00;;;;9820023;29;20218;-77
2023/05/02 05:59:20;;;;;;;79.03;35.97;;;;;10.60;101832.00;;;;9870447;29;20567;-81
2023/05/02 06:04:22;;;;;;;71.90;33.97;;;;;10.80;101834.00;;;;9880497;29;20231;-81
2023/05/02 06:09:26;;;;;;;59.03;26.93;;;;;11.00;101843.00;;;;9841237;29;20287;-81
2023/05/02 06:14:28;;;;;;;50.57;25.53;;;;;11.00;101865.00;;;;9890267;29;20223;-81
2023/05/02 06:19:30;;;;;;;40.80;21.67;;;;;11.00;101862.00;;;;9873719;29;20230;-78
2023/05/02 06:24:31;;;;;;;35.80;19.03;;;;;11.00;101869.00;;;;9882666;29;20247;-82
2023/05/02 06:29:33;;;;;;;29.43;15.30;;;;;10.90;101873.00;;;;9881306;29;20226;-79
2023/05/02 06:34:34;;;;;;;23.73;14.73;;;;;10.90;101884.00;;;;9869838;29;20289;-80
2023/05/02 06:39:36;;;;;;;20.40;12.50;;;;;11.10;101877.00;;;;9875136;29;21505;-80
2023/05/02 06:44:37;;;;;;;14.90;11.30;;;;;11.80;101874.00;;;;9842657;29;20836;-78
2023/05/02 06:49:39;;;;;;;16.67;10.50;;;;;12.70;101863.00;;;;9844400;29;20261;-81
2023/05/02 06:54:41;;;;;;;13.60;10.47;;;;;14.40;101873.00;;;;9856264;29;20225;-81
2023/05/02 06:59:42;;;;;;;15.77;10.20;;;;;14.40;101887.00;;;;9879086;29;20292;-80
2023/05/02 07:04:44;;;;;;;21.17;13.90;;;;;14.30;101885.00;;;;9870831;29;20250;-80
2023/05/02 07:09:45;;;;;;;22.87;15.03;;;;;14.10;101882.00;;;;9839696;29;20872;-81
2023/05/02 07:14:47;;;;;;;19.60;14.27;;;;;13.80;101892.00;;;;9831135;29;20238;-80
2023/05/02 07:19:48;;;;;;;20.70;12.93;;;;;13.90;101894.00;;;;9829228;29;20238;-81
2023/05/02 07:25:00;;;;;;;22.53;15.63;;;;;14.60;101898.00;;;;9815037;29;20247;-82
2023/05/02 07:30:02;;;;;;;20.13;12.27;;;;;14.90;101892.00;;;;9844959;29;20230;-82
2023/05/02 07:35:04;;;;;;;8.97;6.57;;;;;15.30;101892.00;;;;9841833;29;20238;-81
2023/05/02 07:40:06;;;;;;;11.23;8.43;;;;;15.70;101894.00;;;;9857711;29;20372;-79
2023/05/02 07:45:08;;;;;;;8.82;6.30;;;;;16.70;101887.00;;;;9854558;29;20219;-81
2023/05/02 07:50:10;;;;;;;13.02;6.30;;;;;17.00;101884.00;;;;9854669;29;20230;-81
2023/05/02 07:55:12;;;;;;;9.65;4.85;;;;;16.90;101886.00;;;;9849015;29;20463;-79
2023/05/02 08:00:13;;;;;;;7.57;4.47;;;;;15.40;101881.00;;;;9855926;29;20562;-80
2023/05/02 08:05:15;;;;;;;8.32;3.88;;;;;15.00;101896.00;;;;9853562;29;20211;-81
2023/05/02 08:10:17;;;;;;;4.88;3.30;;;;;15.60;101888.00;;;;9857114;29;21183;-81
2023/05/02 08:15:18;;;;;;;6.38;3.22;;;;;16.40;101906.00;;;;9855458;29;21591;-79
2023/05/02 08:20:21;;;;;;;5.50;2.90;;;;;16.10;101915.00;;;;9848185;29;20242;-79
2023/05/02 08:25:23;;;;;;;5.60;3.08;;;;;16.10;101900.00;;;;9834155;29;20223;-79
2023/05/02 08:30:24;;;;;;;4.80;2.67;;;;;17.40;101925.00;;;;9851897;29;20227;-80
2023/05/02 08:35:28;;;;;;;5.10;2.88;;;;;16.80;101933.00;;;;9836607;29;20231;-79
2023/05/02 08:40:35;;;;;;;5.22;3.25;;;;;17.00;101928.00;;;;9834791;29;20223;-82
2023/05/02 08:45:44;;;;;;;10.38;4.10;;;;;19.30;101939.00;;;;9867054;29;20361;-78
2023/05/02 08:50:47;;;;;;;7.18;4.38;;;;;18.60;101929.00;;;;9875459;29;20231;-78
2023/05/02 08:55:48;;;;;;;7.68;5.38;;;;;17.80;101944.00;;;;9872410;29;21224;-81
2023/05/02 09:00:51;;;;;;;9.93;5.28;;;;;18.10;101945.00;;;;9866593;29;20251;-81
2023/05/02 09:05:56;;;;;;;7.25;4.85;;;;;17.60;101945.00;;;;9882953;29;20776;-79
2023/05/02 09:10:58;;;;;;;8.60;5.05;;;;;17.90;101942.00;;;;10143403;24;20215;-77
2023/05/02 09:16:03;;;;;;;6.68;4.93;;;;;18.60;101931.00;;;;10046024;24;20246;-80
2023/05/02 09:21:12;;;;;;;5.80;4.05;;;;;19.50;101946.00;;;;9943150;29;20295;-78
2023/05/02 09:26:41;;;;;;;8.40;3.50;;;;;19.00;101949.00;;;;9931008;29;20328;-80
2023/05/02 09:31:45;;;;;;;8.27;3.40;;;;;17.60;101952.00;;;;9915021;29;20274;-79
2023/05/02 09:36:57;;;;;;;4.55;2.67;;;;;18.00;101961.00;;;;9932399;29;20238;-79
2023/05/02 09:42:00;;;;;;;3.33;2.65;;;;;20.50;101957.00;;;;9925250;29;20798;-78
2023/05/02 09:47:01;;;;;;;4.00;2.30;;;;;21.00;101970.00;;;;10089524;24;20358;-79
2023/05/02 09:52:14;;;;;;;4.53;1.90;;;;;19.50;101966.00;;;;9911314;29;20234;-79
2023/05/02 09:57:17;;;;;;;5.32;2.55;;;;;19.60;101956.00;;;;10003922;24;21603;-80
2023/05/02 10:02:20;;;;;;;4.85;2.10;;;;;20.90;101962.00;;;;9894299;29;20233;-81
2023/05/02 10:07:22;;;;;;;9.32;2.55;;;;;22.10;101955.00;;;;9893616;29;20257;-81
2023/05/02 10:12:26;;;;;;;7.22;2.63;;;;;23.90;101964.00;;;;9894593;29;20488;-83
2023/05/02 10:17:32;;;;;;;7.53;2.45;;;;;23.20;101967.00;;;;9900999;29;20230;-79
2023/05/02 10:22:35;;;;;;;4.32;2.47;;;;;20.80;101973.00;;;;9885452;29;20237;-81
2023/05/02 10:27:37;;;;;;;6.25;3.10;;;;;19.90;101968.00;;;;9887460;29;20218;-81
2023/05/02 10:32:39;;;;;;;3.63;3.25;;;;;19.60;101967.00;;;;9887271;29;20225;-81
2023/05/02 10:37:41;;;;;;;6.90;4.10;;;;;19.80;101972.00;;;;9894297;29;20618;-80
2023/05/02 10:42:45;;;;;;;7.03;3.90;;;;;20.70;101968.00;;;;9869390;29;20941;-82
2023/05/02 10:47:47;;;;;;;8.05;3.72;;;;;21.30;101972.00;;;;9906716;29;21305;-81
2023/05/02 10:52:49;;;;;;;7.07;4.30;;;;;20.70;101978.00;;;;9896148;29;20246;-84
2023/05/02 10:58:21;;;;;;;8.30;4.43;;;;;20.60;101985.00;;;;9878933;29;20354;-82
2023/05/02 11:03:57;;;;;;;7.55;5.30;;;;;21.00;101978.00;;;;9853577;29;20214;-82
2023/05/02 11:09:20;;;;;;;9.60;4.60;;;;;20.30;101974.00;;;;9883081;29;20303;-81
2023/05/02 11:14:24;;;;;;;6.18;4.40;;;;;21.10;101970.00;;;;9884670;29;20354;-81
2023/05/02 11:19:55;;;;;;;7.93;3.85;;;;;20.90;101972.00;;;;9879962;29;20242;-81
2023/05/02 11:24:56;;;;;;;5.88;3.25;;;;;21.00;101968.00;;;;9915072;29;20264;-82
2023/05/02 11:30:08;;;;;;;8.43;3.35;;;;;24.10;101969.00;;;;9890864;29;20217;-82
2023/05/02 11:35:21;;;;;;;6.88;4.20;;;;;23.80;101966.00;;;;9878019;29;20855;-83
2023/05/02 11:40:24;;;;;;;6.22;3.17;;;;;23.30;101973.00;;;;9885638;29;20242;-84
2023/05/02 11:45:36;;;;;;;7.55;2.90;;;;;23.10;101970.00;;;;9920999;29;20659;-81
2023/05/02 11:50:46;;;;;;;6.32;3.03;;;;;23.80;101982.00;;;;9914846;29;20307;-82
2023/05/02 11:55:53;;;;;;;7.00;3.20;;;;;22.00;101986.00;;;;9908638;29;20226;-83
2023/05/02 12:00:55;;;;;;;8.23;3.15;;;;;22.80;101972.00;;;;9881851;29;20593;-84
2023/05/02 12:06:09;;;;;;;7.40;3.40;;;;;23.10;101975.00;;;;9882179;29;20279;-82
2023/05/02 12:11:15;;;;;;;8.30;2.80;;;;;22.40;101986.00;;;;9874147;29;20287;-85
2023/05/02 12:16:18;;;;;;;12.00;3.83;;;;;22.20;102000.00;;;;9856551;29;20278;-83
2023/05/02 12:21:20;;;;;;;6.50;3.85;;;;;22.10;101992.00;;;;9875936;29;20333;-83
2023/05/02 12:26:31;;;;;;;5.75;3.30;;;;;21.40;101983.00;;;;9887753;29;20225;-83
2023/05/02 12:31:33;;;;;;;6.70;3.15;;;;;24.00;101986.00;;;;9876828;29;20720;-83
2023/05/02 12:36:43;;;;;;;4.57;3.22;;;;;24.30;101976.00;;;;9890547;29;20229;-82
2023/05/02 12:41:45;;;;;;;7.22;2.80;;;;;25.30;102002.00;;;;9883319;29;20233;-86
2023/05/02 12:47:00;;;;;;;9.48;3.30;;;;;23.90;102010.00;;;;9890933;29;20218;-83
2023/05/02 12:52:01;;;;;;;8.63;3.50;;;;;22.30;102013.00;;;;9891454;29;20280;-81
2023/05/02 12:57:03;;;;;;;7.78;3.13;;;;;21.50;102006.00;;;;9873692;29;20226;-80
2023/05/02 13:02:05;;;;;;;7.20;3.20;;;;;20.90;102021.00;;;;9879607;29;20357;-81
2023/05/02 13:07:06;;;;;;;9.80;3.75;;;;;20.60;102017.00;;;;9897526;29;20218;-81
2023/05/02 13:12:08;;;;;;;8.07;3.70;;;;;20.50;102026.00;;;;9897178;29;20323;-83
2023/05/02 13:17:10;;;;;;;9.48;3.65;;;;;19.70;102028.00;;;;9877473;29;20241;-82
2023/05/02 13:22:12;;;;;;;6.95;4.30;;;;;18.90;102016.00;;;;9900707;29;21527;-82
2023/05/02 13:27:13;;;;;;;7.20;4.40;;;;;21.20;102016.00;;;;9903459;29;20234;-83
2023/05/02 13:32:15;;;;;;;7.78;3.55;;;;;23.00;102011.00;;;;9904430;29;20261;-83
2023/05/02 13:37:16;;;;;;;9.50;3.42;;;;;23.30;102010.00;;;;9898465;29;20341;-82
2023/05/02 13:42:17;;;;;;;6.97;3.45;;;;;24.00;102016.00;;;;9904844;29;20222;-83
2023/05/02 13:47:20;;;;;;;6.75;3.30;;;;;25.70;101995.00;;;;9883236;29;20222;-83
2023/05/02 13:52:21;;;;;;;8.73;3.65;;;;;24.90;102005.00;;;;9909009;29;21765;-81
2023/05/02 13:57:23;;;;;;;5.95;3.63;;;;;23.80;102004.00;;;;9913440;29;21389;-83
2023/05/02 14:02:25;;;;;;;7.45;3.50;;;;;25.20;101992.00;;;;9900619;29;20230;-84
2023/05/02 14:07:26;;;;;;;8.55;3.85;;;;;25.60;101989.00;;;;9914120;29;20448;-84
2023/05/02 14:12:27;;;;;;;6.93;3.97;;;;;24.10;101998.00;;;;9888803;29;20250;-84
2023/05/02 14:17:30;;;;;;;9.15;3.80;;;;;25.90;101982.00;;;;9903239;29;20246;-84
2023/05/02 14:22:32;;;;;;;10.23;4.30;;;;;26.60;101977.00;;;;9914288;29;21003;-84
2023/05/02 14:27:33;;;;;;;8.77;4.18;;;;;27.60;101986.00;;;;9910587;29;20247;-82
2023/05/02 14:32:34;;;;;;;6.15;4.05;;;;;29.80;101984.00;;;;9862998;29;20222;-83
2023/05/02 14:37:36;;;;;;;8.73;3.88;;;;;29.80;101987.00;;;;9863883;29;20237;-82
2023/05/02 14:42:37;;;;;;;8.40;3.70;;;;;30.20;102003.00;;;;9902154;29;20294;-83
2023/05/02 14:47:39;;;;;;;9.00;4.38;;;;;31.10;102007.00;;;;9903489;29;20218;-83
2023/05/02 14:52:40;;;;;;;7.88;3.40;;;;;31.50;102001.00;;;;9898657;29;22048;-82
2023/05/02 14:57:42;;;;;;;9.30;3.92;;;;;31.40;102000.00;;;;9887765;29;20340;-82
2023/05/02 15:02:43;;;;;;;9.77;3.67;;;;;29.90;102005.00;;;;9907921;29;20397;-82
2023/05/02 15:07:44;;;;;;;9.50;4.25;;;;;26.60;102004.00;;;;9890622;29;20400;-82
2023/05/02 15:12:49;;;;;;;6.18;3.80;;;;;23.70;101996.00;;;;9890627;29;20279;-81
2023/05/02 15:17:51;;;;;;;6.78;4.25;;;;;22.70;101997.00;;;;9874511;29;20242;-81
2023/05/02 15:22:53;;;;;;;8.35;3.85;;;;;24.30;101988.00;;;;9891832;29;20222;-82
2023/05/02 15:27:54;;;;;;;6.60;3.72;;;;;22.20;102002.00;;;;9888966;29;20476;-81
2023/05/02 15:32:55;;;;;;;9.90;3.88;;;;;20.70;101990.00;;;;9874727;29;20213;-81
2023/05/02 15:37:57;;;;;;;8.15;4.70;;;;;21.00;101991.00;;;;9885943;29;20706;-81
2023/05/02 15:42:58;;;;;;;9.40;5.05;;;;;24.80;101979.00;;;;9887854;29;20779;-81
2023/05/02 15:47:59;;;;;;;9.00;4.88;;;;;23.70;102004.00;;;;9870754;29;20600;-82
2023/05/02 15:53:01;;;;;;;8.77;4.22;;;;;20.50;102011.00;;;;9903585;29;20353;-82
2023/05/02 15:58:03;;;;;;;9.73;4.65;;;;;19.60;102007.00;;;;9883311;29;21863;-83
2023/05/02 16:03:05;;;;;;;11.10;5.00;;;;;18.30;102008.00;;;;9871568;29;20225;-82
2023/05/02 16:08:06;;;;;;;7.88;4.70;;;;;17.80;101996.00;;;;9886710;29;20238;-82
2023/05/02 16:13:07;;;;;;;7.45;4.05;;;;;17.40;101996.00;;;;9867192;29;20363;-82
2023/05/02 16:18:09;;;;;;;9.15;4.32;;;;;17.40;101988.00;;;;9880977;29;20253;-81
2023/05/02 16:23:10;;;;;;;7.53;4.43;;;;;17.10;101986.00;;;;9865497;29;20245;-80
2023/05/02 16:28:12;;;;;;;8.93;4.60;;;;;16.70;101993.00;;;;9896902;29;21038;-83
2023/05/02 16:33:13;;;;;;;6.85;4.03;;;;;16.70;101994.00;;;;9881531;29;20743;-81
2023/05/02 16:38:14;;;;;;;9.50;4.40;;;;;16.70;102007.00;;;;9881132;29;21836;-81
2023/05/02 16:43:16;;;;;;;6.15;4.20;;;;;16.60;101997.00;;;;9894661;29;20984;-81
2023/05/02 16:48:18;;;;;;;9.10;4.25;;;;;16.50;101989.00;;;;9880101;29;20448;-80
2023/05/02 16:53:19;;;;;;;9.95;4.22;;;;;16.40;101976.00;;;;9867150;29;20275;-82
2023/05/02 16:58:23;;;;;;;6.28;4.20;;;;;16.30;101980.00;;;;9893584;29;20234;-79
2023/05/02 17:03:24;;;;;;;10.13;4.57;;;;;16.10;101984.00;;;;9854668;29;20704;-80
2023/05/02 17:08:26;;;;;;;7.72;4.25;;;;;16.00;101994.00;;;;9851662;29;20321;-79
2023/05/02 17:13:28;;;;;;;10.20;4.63;;;;;15.90;101992.00;;;;9861237;29;20237;-80
2023/05/02 17:18:29;;;;;;;12.60;4.25;;;;;15.80;102000.00;;;;9861917;29;21997;-80
2023/05/02 17:23:30;;;;;;;6.50;4.45;;;;;15.70;102002.00;;;;9862343;29;20218;-80
2023/05/02 17:28:32;;;;;;;7.07;4.77;;;;;15.50;102001.00;;;;9867816;29;20214;-78
2023/05/02 17:33:34;;;;;;;11.77;4.30;;;;;15.40;102002.00;;;;9865641;29;20966;-80
2023/05/02 17:38:35;;;;;;;9.07;4.50;;;;;15.30;102005.00;;;;9851852;29;20674;-79
2023/05/02 17:43:37;;;;;;;9.23;4.33;;;;;15.20;102009.00;;;;9879907;29;20890;-81
2023/05/02 17:48:42;;;;;;;8.97;4.73;;;;;15.10;102015.00;;;;9874297;29;20213;-81
2023/05/02 17:53:43;;;;;;;7.60;4.63;;;;;14.90;102003.00;;;;9895634;29;20580;-81
2023/05/02 17:58:44;;;;;;;8.83;4.67;;;;;14.70;102006.00;;;;9878647;29;20286;-81
2023/05/02 18:03:46;;;;;;;10.97;4.10;;;;;14.60;102015.00;;;;9877489;29;20669;-81
2023/05/02 18:08:48;;;;;;;8.80;4.87;;;;;14.50;102019.00;;;;9892974;29;20313;-80
2023/05/02 18:13:50;;;;;;;10.10;5.10;;;;;14.30;102035.00;;;;9895379;29;20263;-81
2023/05/02 18:18:52;;;;;;;11.17;4.60;;;;;14.10;102032.00;;;;9863520;29;20610;-81
2023/05/02 18:23:55;;;;;;;8.00;4.73;;;;;13.90;102018.00;;;;9895946;29;20241;-80
2023/05/02 18:28:56;;;;;;;8.17;4.53;;;;;13.70;102036.00;;;;9853604;29;20311;-78
2023/05/02 18:33:58;;;;;;;5.87;4.33;;;;;13.50;102036.00;;;;9862560;29;20229;-79
2023/05/02 18:38:59;;;;;;;10.70;4.90;;;;;13.30;102041.00;;;;9863358;29;20537;-80
2023/05/02 18:44:04;;;;;;;9.23;4.80;;;;;13.10;102043.00;;;;9862674;29;20222;-79
2023/05/02 18:49:07;;;;;;;7.53;4.40;;;;;12.80;102049.00;;;;9860305;29;20226;-79
2023/05/02 18:54:09;;;;;;;13.00;4.63;;;;;12.60;102046.00;;;;9860127;29;20241;-79
2023/05/02 18:59:10;;;;;;;9.90;4.60;;;;;12.40;102045.00;;;;9878786;29;20398;-79
2023/05/02 19:04:12;;;;;;;9.40;4.30;;;;;12.20;102044.00;;;;9865497;29;20243;-79
2023/05/02 19:09:14;;;;;;;10.57;4.10;;;;;12.00;102054.00;;;;9846426;29;20720;-78
2023/05/02 19:14:15;;;;;;;8.27;3.80;;;;;11.80;102077.00;;;;9851195;29;20249;-78
2023/05/02 19:19:17;;;;;;;7.67;4.30;;;;;11.60;102073.00;;;;9854346;29;20264;-78
2023/05/02 19:24:19;;;;;;;6.73;3.80;;;;;11.40;102075.00;;;;9868881;29;20571;-78
2023/05/02 19:29:21;;;;;;;12.80;4.90;;;;;11.30;102069.00;;;;9854400;29;20555;-78
2023/05/02 19:34:22;;;;;;;8.50;3.97;;;;;11.10;102080.00;;;;9872109;29;20286;-78
2023/05/02 19:39:23;;;;;;;6.33;4.30;;;;;11.00;102082.00;;;;9884731;29;20242;-79
2023/05/02 19:44:25;;;;;;;10.03;4.13;;;;;10.90;102080.00;;;;9860530;29;20222;-80
2023/05/02 19:49:26;;;;;;;10.03;4.23;;;;;10.80;102091.00;;;;9870300;29;20229;-81
2023/05/02 19:54:28;;;;;;;9.43;4.37;;;;;10.70;102112.00;;;;9860998;29;20237;-78
2023/05/02 19:59:29;;;;;;;11.53;4.20;;;;;10.50;102109.00;;;;9886112;29;20265;-78
2023/05/02 20:04:31;;;;;;;9.00;3.97;;;;;10.40;102114.00;;;;9895730;29;20719;-81
2023/05/02 20:09:32;;;;;;;9.47;4.60;;;;;10.20;102116.00;;;;9897357;29;20226;-80
2023/05/02 20:14:34;;;;;;;8.53;5.37;;;;;10.10;102120.00;;;;9869015;29;20472;-81
2023/05/02 20:19:35;;;;;;;6.80;4.60;;;;;10.00;102128.00;;;;9858535;29;20482;-78
2023/05/02 20:24:37;;;;;;;10.17;4.60;;;;;9.90;102134.00;;;;9860389;29;20226;-78
2023/05/02 20:29:38;;;;;;;9.43;4.47;;;;;9.80;102137.00;;;;9873949;29;20940;-78
2023/05/02 20:34:40;;;;;;;8.37;4.70;;;;;9.70;102138.00;;;;9870628;29;20282;-78
2023/05/02 20:39:41;;;;;;;8.30;4.57;;;;;9.60;102143.00;;;;9875064;29;20265;-79
2023/05/02 20:44:45;;;;;;;11.73;4.97;;;;;9.50;102153.00;;;;9843948;29;20647;-78
2023/05/02 20:49:46;;;;;;;10.13;4.90;;;;;9.40;102154.00;;;;9874402;29;20246;-77
2023/05/02 20:54:51;;;;;;;8.23;4.90;;;;;9.30;102152.00;;;;9871994;29;20645;-78
2023/05/02 20:59:53;;;;;;;8.17;4.57;;;;;9.20;102168.00;;;;9843755;29;20242;-78
2023/05/02 21:04:55;;;;;;;9.10;4.97;;;;;9.10;102158.00;;;;9856646;29;20301;-78
2023/05/02 21:09:56;;;;;;;8.87;4.60;;;;;9.00;102160.00;;;;9859726;29;20226;-77
2023/05/02 21:14:57;;;;;;;14.50;5.20;;;;;8.90;102165.00;;;;9857787;29;20218;-77
2023/05/02 21:19:59;;;;;;;10.37;5.03;;;;;8.80;102173.00;;;;9870450;29;20246;-77
2023/05/02 21:25:00;;;;;;;7.57;4.47;;;;;8.70;102174.00;;;;9872315;29;20569;-78
2023/05/02 21:30:02;;;;;;;9.97;5.00;;;;;8.50;102172.00;;;;9857624;29;20225;-78
2023/05/02 21:35:04;;;;;;;9.80;4.73;;;;;8.50;102164.00;;;;9874154;29;21428;-78
2023/05/02 21:40:07;;;;;;;9.43;5.30;;;;;8.40;102161.00;;;;9887536;29;20249;-78
2023/05/02 21:45:08;;;;;;;7.83;4.60;;;;;8.30;102165.00;;;;9869369;29;20717;-78
2023/05/02 21:50:10;;;;;;;12.37;5.60;;;;;8.20;102170.00;;;;9886893;29;20230;-78
2023/05/02 21:55:11;;;;;;;10.63;5.20;;;;;8.10;102154.00;;;;9868175;29;20226;-79
2023/05/02 22:00:13;;;;;;;12.23;5.47;;;;;8.00;102151.00;;;;9859293;29;20249;-78
2023/05/02 22:05:15;;;;;;;11.17;4.80;;;;;8.00;102151.00;;;;9867460;29;20272;-78
2023/05/02 22:10:17;;;;;;;12.43;5.03;;;;;7.90;102156.00;;;;9881847;29;20221;-78
2023/05/02 22:15:19;;;;;;;8.70;4.97;;;;;7.80;102152.00;;;;9870668;29;20222;-78
2023/05/02 22:20:21;;;;;;;6.70;4.17;;;;;7.70;102162.00;;;;9853844;29;20512;-78
2023/05/02 22:25:22;;;;;;;7.77;4.03;;;;;7.60;102160.00;;;;9884918;29;20918;-78
2023/05/02 22:30:24;;;;;;;13.77;4.67;;;;;7.50;102164.00;;;;9861237;29;21043;-79
2023/05/02 22:35:26;;;;;;;7.13;4.73;;;;;7.40;102170.00;;;;9841884;29;20968;-78
2023/05/02 22:40:29;;;;;;;6.10;4.10;;;;;7.40;102172.00;;;;9870299;29;20845;-78
2023/05/02 22:45:31;;;;;;;9.10;4.67;;;;;7.30;102176.00;;;;9854678;29;20511;-77
2023/05/02 22:50:32;;;;;;;6.20;3.80;;;;;7.20;102178.00;;;;9855266;29;20311;-79
2023/05/02 22:55:37;;;;;;;10.33;4.47;;;;;7.10;102171.00;;;;9886703;29;20233;-78
2023/05/02 23:00:38;;;;;;;6.93;4.30;;;;;7.10;102171.00;;;;9885944;29;20570;-77
2023/05/02 23:05:40;;;;;;;10.37;4.10;;;;;6.90;102174.00;;;;9854769;29;20232;-78
2023/05/02 23:10:41;;;;;;;9.30;3.90;;;;;6.90;102174.00;;;;9886269;29;20297;-78
2023/05/02 23:15:43;;;;;;;7.73;4.43;;;;;6.80;102178.00;;;;9886983;29;20229;-78
2023/05/02 23:20:44;;;;;;;6.33;4.13;;;;;6.70;102176.00;;;;9877459;29;20382;-77
2023/05/02 23:25:46;;;;;;;8.63;4.20;;;;;6.60;102173.00;;;;9877021;29;20232;-77
2023/05/02 23:30:48;;;;;;;10.13;4.43;;;;;6.50;102166.00;;;;9875916;29;20222;-77
2023/05/02 23:35:49;;;;;;;9.07;3.97;;;;;6.50;102170.00;;;;9874381;29;21936;-78
2023/05/02 23:40:51;;;;;;;9.83;5.17;;;;;6.40;102172.00;;;;9858336;29;20260;-78
2023/05/02 23:45:52;;;;;;;7.80;4.67;;;;;6.30;102180.00;;;;9872739;29;20272;-78
2023/05/02 23:50:53;;;;;;;10.57;5.00;;;;;6.20;102181.00;;;;9883730;29;21171;-79
2023/05/02 23:55:56;;;;;;;6.80;4.27;;;;;6.20;102184.00;;;;9868344;29;20241;-77
